Vremea acum in Ocna Mures - Romania

Vrei sa afli care e starea vremii acum in Alba - Romania? Dorim sa iti furnizam starea vremii pentru Alba - Romania. Starea vremii Alba - Romania pentru astazi.

Vremea acum in Ocna Mures

Temperatura: 12 °C

Se simte ca: 11.7 °C
Innorat: 100 %
Precipitatii: 0 %
Presiune atmosferica: 1023 hPa
Umiditate: 88%
Vizibilitate: 10 km
Vantul bate din W cu 6.1 km/h

Evolutia vremii in Ocna Mures pe ore

Ora: 21:00
Noros
Temperatura: 11.1°C
Sansa de precipitatii: 0%
Ora Descriere Temp Se simte Precipitatii Umiditate Vant
00:00Parțial noros10.4°10.2°0%84%E 4.7 KM/H
01:00Parțial noros9.9°9.8°0%85%E 3.2 KM/H
02:00Parțial noros9.4°9.4°0%86%ESE 2.2 KM/H
03:00Parțial noros0%86%SE 2.2 KM/H
04:00Parțial noros8.7°8.7°0%86%SSE 2.5 KM/H
05:00Parțial noros8.3°8.3°0%87%SSE 2.5 KM/H
06:00Parțial noros8.5°8.5°0%85%SSE 2.5 KM/H
07:00Parțial noros8.8°8.8°0%83%SSE 2.9 KM/H
08:00Parțial noros0%81%SE 2.9 KM/H
09:00Parțial noros10.4°10.3°0%74%SE 4.3 KM/H
10:00Parțial noros11.9°11.7°0%67%SE 6.1 KM/H
11:00Parțial noros13.3°13°0%60%SE 7.6 KM/H
12:00Parțial noros14.2°14°0%56%SE 6.8 KM/H
13:00Parțial noros15.2°15.1°0%53%SE 5.8 KM/H
14:00Parțial noros16.1°16.1°0%50%SE 5 KM/H
15:00Parțial noros15.5°15.5°0%53%ESE 4 KM/H
16:00Parțial noros14.8°14.8°0%56%ENE 2.9 KM/H
17:00Parțial noros14.2°14.2°0%59%NE 1.8 KM/H
18:00Parțial noros13.3°13.3°0%62%SE 2.5 KM/H
19:00Parțial noros12.3°12.5°0%65%SSW 3.6 KM/H
20:00Parțial noros11.4°11.6°0%68%WNW 4.3 KM/H
21:00Noros11.1°11.2°0%71%WNW 4.7 KM/H
22:00Parțial noros10.9°10.8°0%73%WNW 4.7 KM/H
23:00Noros10.6°10.4°0%75%WNW 5 KM/H